sensor_id;sensor_type;location;lat;lon;timestamp;pressure;altitude;pressure_sealevel;temperature;humidity
18850;BME280;4989;48.772;9.154;2023-03-16T00:00:32;98392.00;;;6.95;100.00
18850;BME280;4989;48.772;9.154;2023-03-16T00:05:35;98390.63;;;8.66;100.00
18850;BME280;4989;48.772;9.154;2023-03-16T00:10:37;98389.09;;;8.61;91.64
18850;BME280;4989;48.772;9.154;2023-03-16T00:15:40;98389.69;;;6.97;92.19
18850;BME280;4989;48.772;9.154;2023-03-16T00:20:43;98384.47;;;5.91;99.54
18850;BME280;4989;48.772;9.154;2023-03-16T00:25:46;98391.72;;;5.77;100.00
18850;BME280;4989;48.772;9.154;2023-03-16T00:30:48;98381.69;;;5.70;100.00
18850;BME280;4989;48.772;9.154;2023-03-16T00:35:51;98387.63;;;5.24;100.00
18850;BME280;4989;48.772;9.154;2023-03-16T00:41:05;98396.56;;;5.42;100.00
18850;BME280;4989;48.772;9.154;2023-03-16T00:46:13;98389.72;;;4.97;100.00
18850;BME280;4989;48.772;9.154;2023-03-16T00:51:18;98388.38;;;5.21;100.00
18850;BME280;4989;48.772;9.154;2023-03-16T00:56:20;98386.91;;;5.38;100.00
18850;BME280;4989;48.772;9.154;2023-03-16T01:01:23;98382.38;;;5.53;100.00
18850;BME280;4989;48.772;9.154;2023-03-16T01:06:26;98390.63;;;5.85;100.00
18850;BME280;4989;48.772;9.154;2023-03-16T01:11:29;98378.22;;;5.03;100.00
18850;BME280;4989;48.772;9.154;2023-03-16T01:16:31;98385.72;;;4.76;100.00
18850;BME280;4989;48.772;9.154;2023-03-16T01:21:35;98376.59;;;4.92;100.00
18850;BME280;4989;48.772;9.154;2023-03-16T01:26:39;98380.59;;;4.61;100.00
18850;BME280;4989;48.772;9.154;2023-03-16T01:31:41;98374.84;;;4.66;100.00
18850;BME280;4989;48.772;9.154;2023-03-16T01:36:47;98369.41;;;4.58;100.00
18850;BME280;4989;48.772;9.154;2023-03-16T01:41:57;98370.25;;;4.66;100.00
18850;BME280;4989;48.772;9.154;2023-03-16T01:47:00;98373.25;;;4.54;100.00
18850;BME280;4989;48.772;9.154;2023-03-16T01:52:12;98368.78;;;4.76;100.00
18850;BME280;4989;48.772;9.154;2023-03-16T01:57:24;98361.06;;;4.71;100.00
18850;BME280;4989;48.772;9.154;2023-03-16T02:02:31;98354.75;;;4.52;100.00
18850;BME280;4989;48.772;9.154;2023-03-16T02:07:42;98350.97;;;4.57;100.00
18850;BME280;4989;48.772;9.154;2023-03-16T02:12:46;98358.22;;;4.12;100.00
18850;BME280;4989;48.772;9.154;2023-03-16T02:17:50;98351.69;;;3.76;100.00
18850;BME280;4989;48.772;9.154;2023-03-16T02:22:54;98338.34;;;3.22;100.00
18850;BME280;4989;48.772;9.154;2023-03-16T02:33:19;98342.72;;;2.32;100.00
18850;BME280;4989;48.772;9.154;2023-03-16T02:38:24;98352.13;;;2.45;100.00
18850;BME280;4989;48.772;9.154;2023-03-16T02:43:33;98342.06;;;2.38;100.00
18850;BME280;4989;48.772;9.154;2023-03-16T02:48:47;98331.03;;;2.66;100.00
18850;BME280;4989;48.772;9.154;2023-03-16T02:53:51;98332.53;;;2.41;100.00
18850;BME280;4989;48.772;9.154;2023-03-16T02:58:55;98333.88;;;2.08;100.00
18850;BME280;4989;48.772;9.154;2023-03-16T03:04:01;98328.00;;;2.22;100.00
18850;BME280;4989;48.772;9.154;2023-03-16T03:09:06;98330.19;;;2.16;100.00
18850;BME280;4989;48.772;9.154;2023-03-16T03:14:09;98321.00;;;1.94;100.00
18850;BME280;4989;48.772;9.154;2023-03-16T03:19:14;98325.03;;;2.27;100.00
18850;BME280;4989;48.772;9.154;2023-03-16T03:24:16;98325.75;;;2.73;100.00
18850;BME280;4989;48.772;9.154;2023-03-16T03:29:21;98311.66;;;3.07;100.00
18850;BME280;4989;48.772;9.154;2023-03-16T03:34:24;98305.03;;;2.70;100.00
18850;BME280;4989;48.772;9.154;2023-03-16T03:39:27;98302.25;;;2.63;100.00
18850;BME280;4989;48.772;9.154;2023-03-16T03:44:30;98308.34;;;2.90;100.00
18850;BME280;4989;48.772;9.154;2023-03-16T03:49:36;98305.84;;;2.74;100.00
18850;BME280;4989;48.772;9.154;2023-03-16T03:54:38;98300.53;;;2.51;100.00
18850;BME280;4989;48.772;9.154;2023-03-16T03:59:47;98295.59;;;2.57;100.00
18850;BME280;4989;48.772;9.154;2023-03-16T04:05:08;98289.50;;;2.60;100.00
18850;BME280;4989;48.772;9.154;2023-03-16T04:10:11;98293.31;;;2.10;100.00
18850;BME280;4989;48.772;9.154;2023-03-16T04:15:16;98296.13;;;1.94;100.00
18850;BME280;4989;48.772;9.154;2023-03-16T04:20:42;98289.19;;;1.93;100.00
18850;BME280;4989;48.772;9.154;2023-03-16T04:25:49;98287.66;;;2.38;100.00
18850;BME280;4989;48.772;9.154;2023-03-16T04:30:53;98277.22;;;3.12;100.00
18850;BME280;4989;48.772;9.154;2023-03-16T04:36:06;98275.19;;;4.51;100.00
18850;BME280;4989;48.772;9.154;2023-03-16T04:41:12;98270.75;;;4.29;100.00
18850;BME280;4989;48.772;9.154;2023-03-16T04:46:24;98265.75;;;4.24;100.00
18850;BME280;4989;48.772;9.154;2023-03-16T04:51:28;98267.59;;;4.20;100.00
18850;BME280;4989;48.772;9.154;2023-03-16T04:56:51;98268.38;;;4.72;100.00
18850;BME280;4989;48.772;9.154;2023-03-16T05:02:04;98266.22;;;5.97;100.00
18850;BME280;4989;48.772;9.154;2023-03-16T05:07:07;98275.50;;;6.42;100.00
18850;BME280;4989;48.772;9.154;2023-03-16T05:12:13;98267.69;;;7.02;100.00
18850;BME280;4989;48.772;9.154;2023-03-16T05:17:18;98267.13;;;7.50;100.00
18850;BME280;4989;48.772;9.154;2023-03-16T05:22:21;98266.66;;;7.69;100.00
18850;BME280;4989;48.772;9.154;2023-03-16T05:27:46;98267.25;;;8.02;100.00
18850;BME280;4989;48.772;9.154;2023-03-16T05:32:58;98261.66;;;8.27;100.00
18850;BME280;4989;48.772;9.154;2023-03-16T05:38:03;98263.50;;;8.41;100.00
18850;BME280;4989;48.772;9.154;2023-03-16T05:43:08;98265.41;;;8.44;100.00
18850;BME280;4989;48.772;9.154;2023-03-16T05:48:17;98260.53;;;8.69;100.00
18850;BME280;4989;48.772;9.154;2023-03-16T05:53:23;98255.75;;;8.84;100.00
18850;BME280;4989;48.772;9.154;2023-03-16T05:58:34;98257.25;;;8.89;100.00
18850;BME280;4989;48.772;9.154;2023-03-16T06:03:41;98244.72;;;9.02;100.00
18850;BME280;4989;48.772;9.154;2023-03-16T06:08:47;98253.38;;;8.90;100.00
18850;BME280;4989;48.772;9.154;2023-03-16T06:13:52;98252.72;;;9.13;100.00
18850;BME280;4989;48.772;9.154;2023-03-16T06:18:55;98251.53;;;9.17;100.00
18850;BME280;4989;48.772;9.154;2023-03-16T06:24:02;98249.09;;;9.27;100.00
18850;BME280;4989;48.772;9.154;2023-03-16T06:29:05;98260.81;;;9.16;100.00
18850;BME280;4989;48.772;9.154;2023-03-16T06:34:10;98262.38;;;9.17;100.00
18850;BME280;4989;48.772;9.154;2023-03-16T06:39:13;98270.94;;;9.12;97.58
18850;BME280;4989;48.772;9.154;2023-03-16T06:44:20;98252.06;;;9.05;100.00
18850;BME280;4989;48.772;9.154;2023-03-16T06:49:36;98265.22;;;9.41;91.29
18850;BME280;4989;48.772;9.154;2023-03-16T06:54:47;98260.66;;;9.31;97.95
18850;BME280;4989;48.772;9.154;2023-03-16T06:59:52;98264.09;;;9.01;75.18
18850;BME280;4989;48.772;9.154;2023-03-16T07:04:55;98268.47;;;8.46;73.30
18850;BME280;4989;48.772;9.154;2023-03-16T07:09:58;98260.53;;;8.69;71.11
18850;BME280;4989;48.772;9.154;2023-03-16T07:15:02;98268.50;;;9.22;70.03
18850;BME280;4989;48.772;9.154;2023-03-16T07:20:06;98267.81;;;9.79;66.71
18850;BME280;4989;48.772;9.154;2023-03-16T07:25:12;98277.22;;;10.25;64.21
18850;BME280;4989;48.772;9.154;2023-03-16T07:30:20;98277.09;;;10.36;63.29
18850;BME280;4989;48.772;9.154;2023-03-16T07:35:24;98277.16;;;10.32;63.85
18850;BME280;4989;48.772;9.154;2023-03-16T07:40:29;98279.63;;;10.46;62.05
18850;BME280;4989;48.772;9.154;2023-03-16T07:45:40;98279.59;;;11.17;59.30
18850;BME280;4989;48.772;9.154;2023-03-16T07:50:45;98280.81;;;11.72;57.08
18850;BME280;4989;48.772;9.154;2023-03-16T07:55:49;98274.25;;;11.89;57.02
18850;BME280;4989;48.772;9.154;2023-03-16T08:00:56;98276.84;;;11.37;58.50
18850;BME280;4989;48.772;9.154;2023-03-16T08:06:00;98277.78;;;10.13;62.77
18850;BME280;4989;48.772;9.154;2023-03-16T08:11:02;98278.00;;;10.29;62.58
18850;BME280;4989;48.772;9.154;2023-03-16T08:16:28;98274.50;;;10.75;61.89
18850;BME280;4989;48.772;9.154;2023-03-16T08:21:32;98270.13;;;13.25;55.36
18850;BME280;4989;48.772;9.154;2023-03-16T08:26:43;98270.31;;;14.49;51.27
18850;BME280;4989;48.772;9.154;2023-03-16T08:31:46;98268.19;;;13.93;52.04
18850;BME280;4989;48.772;9.154;2023-03-16T08:36:59;98266.53;;;14.47;49.90
18850;BME280;4989;48.772;9.154;2023-03-16T08:42:03;98253.81;;;15.44;48.21
18850;BME280;4989;48.772;9.154;2023-03-16T08:47:15;98246.09;;;16.91;45.09
18850;BME280;4989;48.772;9.154;2023-03-16T08:52:19;98240.41;;;17.23;43.44
18850;BME280;4989;48.772;9.154;2023-03-16T08:57:25;98239.19;;;17.84;42.68
18850;BME280;4989;48.772;9.154;2023-03-16T09:02:28;98229.50;;;17.56;42.84
18850;BME280;4989;48.772;9.154;2023-03-16T09:07:31;98241.16;;;18.26;41.67
18850;BME280;4989;48.772;9.154;2023-03-16T09:12:37;98237.91;;;17.61;40.54
18850;BME280;4989;48.772;9.154;2023-03-16T09:17:40;98242.09;;;18.71;39.03
18850;BME280;4989;48.772;9.154;2023-03-16T09:22:44;98236.91;;;17.31;41.28
18850;BME280;4989;48.772;9.154;2023-03-16T09:27:47;98218.13;;;14.91;44.77
18850;BME280;4989;48.772;9.154;2023-03-16T09:32:49;98219.63;;;13.46;48.64
18850;BME280;4989;48.772;9.154;2023-03-16T09:37:52;98222.59;;;12.35;52.02
18850;BME280;4989;48.772;9.154;2023-03-16T09:43:15;98223.88;;;12.76;52.26
18850;BME280;4989;48.772;9.154;2023-03-16T09:48:20;98208.22;;;14.37;47.04
18850;BME280;4989;48.772;9.154;2023-03-16T09:53:30;98204.16;;;13.14;50.50
18850;BME280;4989;48.772;9.154;2023-03-16T09:58:34;98198.91;;;12.15;52.41
18850;BME280;4989;48.772;9.154;2023-03-16T10:03:47;98183.25;;;12.65;52.08
18850;BME280;4989;48.772;9.154;2023-03-16T10:09:06;98192.47;;;13.13;50.99
18850;BME280;4989;48.772;9.154;2023-03-16T10:14:18;98189.81;;;13.39;49.52
18850;BME280;4989;48.772;9.154;2023-03-16T10:19:38;98195.28;;;13.90;49.05
18850;BME280;4989;48.772;9.154;2023-03-16T10:25:06;98201.09;;;14.39;48.68
18850;BME280;4989;48.772;9.154;2023-03-16T10:36:00;98171.81;;;14.97;46.36
18850;BME280;4989;48.772;9.154;2023-03-16T10:46:20;98174.94;;;17.12;41.96
18850;BME280;4989;48.772;9.154;2023-03-16T10:51:26;98166.09;;;18.50;40.25
18850;BME280;4989;48.772;9.154;2023-03-16T10:56:33;98148.25;;;19.29;38.44
18850;BME280;4989;48.772;9.154;2023-03-16T11:01:38;98142.25;;;21.09;35.15
18850;BME280;4989;48.772;9.154;2023-03-16T11:06:51;98146.44;;;19.26;36.82
18850;BME280;4989;48.772;9.154;2023-03-16T11:11:55;98141.44;;;18.70;37.33
18850;BME280;4989;48.772;9.154;2023-03-16T11:17:13;98138.13;;;21.93;33.80
18850;BME280;4989;48.772;9.154;2023-03-16T11:22:25;98129.56;;;21.48;33.41
18850;BME280;4989;48.772;9.154;2023-03-16T11:27:54;98134.00;;;23.37;31.07
18850;BME280;4989;48.772;9.154;2023-03-16T11:32:58;98130.22;;;23.28;30.56
18850;BME280;4989;48.772;9.154;2023-03-16T11:54:11;98096.38;;;24.86;28.21
18850;BME280;4989;48.772;9.154;2023-03-16T12:05:21;98082.56;;;20.65;34.55
18850;BME280;4989;48.772;9.154;2023-03-16T12:10:32;98067.88;;;21.37;33.88
18850;BME280;4989;48.772;9.154;2023-03-16T12:15:41;98059.22;;;22.21;32.76
18850;BME280;4989;48.772;9.154;2023-03-16T12:20:53;98056.00;;;22.33;31.20
18850;BME280;4989;48.772;9.154;2023-03-16T12:25:58;98062.81;;;21.03;33.99
18850;BME280;4989;48.772;9.154;2023-03-16T12:31:15;98073.06;;;20.97;33.50
18850;BME280;4989;48.772;9.154;2023-03-16T12:42:43;98057.94;;;17.96;37.01
18850;BME280;4989;48.772;9.154;2023-03-16T12:52:57;98036.16;;;18.07;36.75
18850;BME280;4989;48.772;9.154;2023-03-16T12:58:06;98038.16;;;19.60;34.74
18850;BME280;4989;48.772;9.154;2023-03-16T13:03:19;98027.78;;;18.85;35.42
18850;BME280;4989;48.772;9.154;2023-03-16T13:08:22;98022.94;;;19.09;34.49
18850;BME280;4989;48.772;9.154;2023-03-16T13:13:25;98017.63;;;20.23;34.80
18850;BME280;4989;48.772;9.154;2023-03-16T13:18:40;98028.28;;;21.25;32.76
18850;BME280;4989;48.772;9.154;2023-03-16T13:28:53;98011.72;;;20.09;31.51
18850;BME280;4989;48.772;9.154;2023-03-16T13:33:56;98010.75;;;18.27;35.46
18850;BME280;4989;48.772;9.154;2023-03-16T13:44:17;97999.03;;;18.56;37.19
18850;BME280;4989;48.772;9.154;2023-03-16T13:49:20;97998.56;;;19.22;35.78
18850;BME280;4989;48.772;9.154;2023-03-16T13:54:28;97992.75;;;18.41;36.28
18850;BME280;4989;48.772;9.154;2023-03-16T13:59:31;97978.91;;;19.91;33.85
18850;BME280;4989;48.772;9.154;2023-03-16T14:04:33;97989.38;;;23.80;30.10
18850;BME280;4989;48.772;9.154;2023-03-16T14:09:36;97972.28;;;25.56;28.34
18850;BME280;4989;48.772;9.154;2023-03-16T14:14:44;97966.63;;;26.24;26.14
18850;BME280;4989;48.772;9.154;2023-03-16T14:19:48;97968.84;;;23.24;27.19
18850;BME280;4989;48.772;9.154;2023-03-16T14:24:57;97958.81;;;22.65;27.97
18850;BME280;4989;48.772;9.154;2023-03-16T14:30:23;97949.66;;;22.03;27.94
18850;BME280;4989;48.772;9.154;2023-03-16T14:35:41;97933.13;;;20.31;29.31
18850;BME280;4989;48.772;9.154;2023-03-16T14:40:52;97922.66;;;18.86;32.35
18850;BME280;4989;48.772;9.154;2023-03-16T14:45:55;97909.69;;;19.07;32.41
18850;BME280;4989;48.772;9.154;2023-03-16T14:51:00;97918.06;;;17.89;33.62
18850;BME280;4989;48.772;9.154;2023-03-16T14:56:11;97919.22;;;16.43;34.46
18850;BME280;4989;48.772;9.154;2023-03-16T15:01:16;97926.34;;;15.89;35.32
18850;BME280;4989;48.772;9.154;2023-03-16T15:06:21;97920.22;;;15.48;37.41
18850;BME280;4989;48.772;9.154;2023-03-16T15:11:24;97919.31;;;14.74;39.00
18850;BME280;4989;48.772;9.154;2023-03-16T15:16:27;97921.84;;;15.09;36.85
18850;BME280;4989;48.772;9.154;2023-03-16T15:21:30;97917.00;;;14.63;37.75
18850;BME280;4989;48.772;9.154;2023-03-16T15:26:33;97904.69;;;15.27;37.45
18850;BME280;4989;48.772;9.154;2023-03-16T15:31:37;97901.94;;;15.36;37.18
18850;BME280;4989;48.772;9.154;2023-03-16T15:36:40;97896.47;;;15.82;37.01
18850;BME280;4989;48.772;9.154;2023-03-16T15:41:42;97898.91;;;16.08;36.63
18850;BME280;4989;48.772;9.154;2023-03-16T15:46:49;97907.75;;;15.47;37.26
18850;BME280;4989;48.772;9.154;2023-03-16T15:51:51;97915.19;;;15.28;37.48
18850;BME280;4989;48.772;9.154;2023-03-16T15:56:54;97912.84;;;14.99;37.48
18850;BME280;4989;48.772;9.154;2023-03-16T16:01:57;97907.56;;;15.14;37.76
18850;BME280;4989;48.772;9.154;2023-03-16T16:07:00;97908.88;;;15.00;38.22
18850;BME280;4989;48.772;9.154;2023-03-16T16:12:04;97903.16;;;15.07;38.72
18850;BME280;4989;48.772;9.154;2023-03-16T16:17:11;97901.34;;;15.14;38.32
18850;BME280;4989;48.772;9.154;2023-03-16T16:22:16;97907.72;;;15.10;38.74
18850;BME280;4989;48.772;9.154;2023-03-16T16:27:20;97902.69;;;15.09;39.12
18850;BME280;4989;48.772;9.154;2023-03-16T16:32:23;97891.81;;;14.78;39.84
18850;BME280;4989;48.772;9.154;2023-03-16T16:37:27;97892.13;;;14.80;40.36
18850;BME280;4989;48.772;9.154;2023-03-16T16:42:30;97901.72;;;14.84;40.56
18850;BME280;4989;48.772;9.154;2023-03-16T16:47:33;97885.44;;;14.81;40.88
18850;BME280;4989;48.772;9.154;2023-03-16T16:52:35;97890.72;;;14.66;41.48
18850;BME280;4989;48.772;9.154;2023-03-16T16:57:38;97877.16;;;14.53;42.56
18850;BME280;4989;48.772;9.154;2023-03-16T17:02:49;97871.69;;;14.53;42.45
18850;BME280;4989;48.772;9.154;2023-03-16T17:07:53;97877.97;;;14.32;42.78
18850;BME280;4989;48.772;9.154;2023-03-16T17:12:56;97871.72;;;14.31;43.48
18850;BME280;4989;48.772;9.154;2023-03-16T17:18:11;97870.66;;;14.29;43.31
18850;BME280;4989;48.772;9.154;2023-03-16T17:23:33;97868.50;;;14.24;43.82
18850;BME280;4989;48.772;9.154;2023-03-16T17:28:41;97873.78;;;14.18;45.16
18850;BME280;4989;48.772;9.154;2023-03-16T17:33:44;97875.72;;;14.08;45.86
18850;BME280;4989;48.772;9.154;2023-03-16T17:38:47;97859.59;;;14.01;45.83
18850;BME280;4989;48.772;9.154;2023-03-16T17:43:51;97872.88;;;13.90;46.15
18850;BME280;4989;48.772;9.154;2023-03-16T17:48:56;97865.06;;;13.79;46.88
18850;BME280;4989;48.772;9.154;2023-03-16T17:53:58;97877.91;;;13.69;46.98
18850;BME280;4989;48.772;9.154;2023-03-16T17:59:10;97873.59;;;13.59;47.37
18850;BME280;4989;48.772;9.154;2023-03-16T18:04:24;97863.69;;;13.52;47.62
18850;BME280;4989;48.772;9.154;2023-03-16T18:09:28;97875.84;;;13.39;51.62
18850;BME280;4989;48.772;9.154;2023-03-16T18:14:36;97869.44;;;13.20;53.03
18850;BME280;4989;48.772;9.154;2023-03-16T18:19:41;97872.31;;;13.16;52.07
18850;BME280;4989;48.772;9.154;2023-03-16T18:24:45;97870.94;;;12.99;55.10
18850;BME280;4989;48.772;9.154;2023-03-16T18:29:49;97877.72;;;12.81;55.46
18850;BME280;4989;48.772;9.154;2023-03-16T18:34:52;97878.16;;;12.67;53.91
18850;BME280;4989;48.772;9.154;2023-03-16T18:39:56;97882.31;;;12.46;55.16
18850;BME280;4989;48.772;9.154;2023-03-16T18:44:59;97872.63;;;12.32;57.60
18850;BME280;4989;48.772;9.154;2023-03-16T18:50:02;97866.09;;;12.17;56.93
18850;BME280;4989;48.772;9.154;2023-03-16T18:55:14;97856.91;;;12.11;57.07
18850;BME280;4989;48.772;9.154;2023-03-16T19:00:23;97858.88;;;12.10;59.08
18850;BME280;4989;48.772;9.154;2023-03-16T19:05:32;97862.84;;;11.80;57.47
18850;BME280;4989;48.772;9.154;2023-03-16T19:10:49;97862.72;;;11.71;56.72
18850;BME280;4989;48.772;9.154;2023-03-16T19:15:54;97855.47;;;11.64;57.61
18850;BME280;4989;48.772;9.154;2023-03-16T19:20:57;97846.03;;;11.69;57.21
18850;BME280;4989;48.772;9.154;2023-03-16T19:26:06;97844.81;;;11.57;58.11
18850;BME280;4989;48.772;9.154;2023-03-16T19:31:20;97842.22;;;11.66;59.01
18850;BME280;4989;48.772;9.154;2023-03-16T19:36:24;97841.09;;;11.51;57.60
18850;BME280;4989;48.772;9.154;2023-03-16T19:41:32;97851.59;;;11.36;57.67
18850;BME280;4989;48.772;9.154;2023-03-16T19:46:35;97856.22;;;11.23;56.35
18850;BME280;4989;48.772;9.154;2023-03-16T19:51:38;97851.28;;;11.18;56.52
18850;BME280;4989;48.772;9.154;2023-03-16T19:56:40;97845.44;;;11.03;56.44
18850;BME280;4989;48.772;9.154;2023-03-16T20:01:44;97847.06;;;11.00;56.63
18850;BME280;4989;48.772;9.154;2023-03-16T20:06:47;97843.63;;;10.84;57.27
18850;BME280;4989;48.772;9.154;2023-03-16T20:11:51;97834.56;;;11.03;56.73
18850;BME280;4989;48.772;9.154;2023-03-16T20:16:53;97830.19;;;11.22;56.31
18850;BME280;4989;48.772;9.154;2023-03-16T20:21:56;97829.22;;;10.99;57.03
18850;BME280;4989;48.772;9.154;2023-03-16T20:26:59;97828.75;;;10.55;58.38
18850;BME280;4989;48.772;9.154;2023-03-16T20:32:04;97844.03;;;10.33;59.45
18850;BME280;4989;48.772;9.154;2023-03-16T20:37:27;97845.03;;;10.23;59.71
18850;BME280;4989;48.772;9.154;2023-03-16T20:42:32;97840.91;;;10.15;60.37
18850;BME280;4989;48.772;9.154;2023-03-16T20:47:35;97842.13;;;10.14;60.33
18850;BME280;4989;48.772;9.154;2023-03-16T20:52:38;97833.31;;;10.26;59.86
18850;BME280;4989;48.772;9.154;2023-03-16T20:57:41;97827.66;;;10.00;60.86
18850;BME280;4989;48.772;9.154;2023-03-16T21:02:44;97830.34;;;9.84;61.79
18850;BME280;4989;48.772;9.154;2023-03-16T21:07:48;97834.72;;;9.78;61.97
18850;BME280;4989;48.772;9.154;2023-03-16T21:12:53;97835.63;;;9.71;62.53
18850;BME280;4989;48.772;9.154;2023-03-16T21:18:02;97818.97;;;9.89;62.02
18850;BME280;4989;48.772;9.154;2023-03-16T21:23:14;97815.50;;;9.89;61.70
18850;BME280;4989;48.772;9.154;2023-03-16T21:28:19;97821.81;;;9.66;62.25
18850;BME280;4989;48.772;9.154;2023-03-16T21:38:29;97810.78;;;9.53;62.84
18850;BME280;4989;48.772;9.154;2023-03-16T21:43:32;97812.13;;;9.64;62.41
18850;BME280;4989;48.772;9.154;2023-03-16T21:48:37;97818.88;;;9.56;62.58
18850;BME280;4989;48.772;9.154;2023-03-16T21:53:41;97809.31;;;9.88;62.05
18850;BME280;4989;48.772;9.154;2023-03-16T21:58:45;97796.94;;;9.87;61.80
18850;BME280;4989;48.772;9.154;2023-03-16T22:03:53;97797.41;;;9.82;61.95
18850;BME280;4989;48.772;9.154;2023-03-16T22:08:58;97792.63;;;9.70;62.37
18850;BME280;4989;48.772;9.154;2023-03-16T22:14:00;97790.09;;;9.62;62.25
18850;BME280;4989;48.772;9.154;2023-03-16T22:19:03;97789.72;;;9.60;62.62
18850;BME280;4989;48.772;9.154;2023-03-16T22:24:14;97791.75;;;9.56;62.34
18850;BME280;4989;48.772;9.154;2023-03-16T22:29:28;97784.06;;;9.71;62.24
18850;BME280;4989;48.772;9.154;2023-03-16T22:34:41;97785.72;;;10.01;62.35
18850;BME280;4989;48.772;9.154;2023-03-16T22:39:45;97778.69;;;10.04;62.75
18850;BME280;4989;48.772;9.154;2023-03-16T22:44:48;97768.94;;;10.06;63.35
18850;BME280;4989;48.772;9.154;2023-03-16T22:49:51;97762.22;;;9.95;64.29
18850;BME280;4989;48.772;9.154;2023-03-16T22:54:53;97760.72;;;9.94;64.32
18850;BME280;4989;48.772;9.154;2023-03-16T22:59:57;97759.22;;;9.73;64.93
18850;BME280;4989;48.772;9.154;2023-03-16T23:05:00;97757.00;;;9.68;65.41
18850;BME280;4989;48.772;9.154;2023-03-16T23:10:03;97750.34;;;9.52;67.00
18850;BME280;4989;48.772;9.154;2023-03-16T23:15:32;97749.00;;;9.44;71.25
18850;BME280;4989;48.772;9.154;2023-03-16T23:20:35;97750.59;;;9.22;68.18
18850;BME280;4989;48.772;9.154;2023-03-16T23:25:38;97743.97;;;9.23;71.56
18850;BME280;4989;48.772;9.154;2023-03-16T23:30:40;97739.66;;;9.45;70.84
18850;BME280;4989;48.772;9.154;2023-03-16T23:35:43;97748.63;;;9.42;68.94
18850;BME280;4989;48.772;9.154;2023-03-16T23:40:48;97733.84;;;9.27;75.69
18850;BME280;4989;48.772;9.154;2023-03-16T23:45:51;97741.78;;;9.17;71.76
18850;BME280;4989;48.772;9.154;2023-03-16T23:50:54;97743.31;;;9.55;68.26
18850;BME280;4989;48.772;9.154;2023-03-16T23:55:57;97738.28;;;9.73;68.67
